Timeline UpdatesTrip UpdatesNews PostsPvt PostsTravel TipsAdmin PostsConv PostsFollowed PostsChat RequestsBlog PostsPNR Posts

Disclaimer
Search
 
 
Mon Sep 22, 2014 23:47:07 ISTHomeTrainsΣChainsAtlasPNRForumGalleryNewsFAQTripsMembersLoginFeedback
No Recent News for this Train
Other Trains in the News **new
Latest...
.
Sat Feb 02, 2013 (04:10PM)
⇐ Return Journey: Train# 51187

51188/Katni - Bhusaval Passenger (UnReserved)

Time-Table HAS CHANGED.
Sep 05 (2:13PM)
Change Departure Station:
Change Arrival Station:
Post a Train Travel TipPost a Train Travel Tip **new
Post a Comment/Question/Picture/VideoPost a Comment/Question/Picture/Video
Pantry/Catering
✕ NO Pantry Car
✕ NO Catering
RSA - Rake Sharing
Rake/Coach Composition
Loco
KTE-ET: KTE/ET WDM-3A ET-BSL: BSL/ET WAP-4
News    PNR    Forum    Time-Table    Availability    Fare Chart    Map    Arr/Dep History    Trips    Gallery    ΣChains    X/O    Timeline    
Travel Time: 7h 57m    27 halts    Distance: 224 km    Avg Speed: 28 km/hr
Type: Passenger
Zone: CR/Central
Departs @ 09:03 (Avg 3h 22m late)
Platform# ???
SMTWTFS
Palasner/PAL 
Arrives @ 17:00 (Avg 2h 24m late)
Platform# 6
SMTWTFS
Bhusaval Junction/BSL 

27 halts. 28 intermediate Stations between Palasner and Bhusaval Junction

Show ALL intermediate Stations  Show Old Time-Table

#CodeStation NameX/OArrivesAvgDepartsAvgHaltPFDay#KmSpeedElevZoneAddress
1KTEKatni Junction (6)  -22:20+3251-419.032387mWCRKatni, Madhya Pradesh
2MDRRMadhavnagar Road (2)  22:30-22:31-1m--1-413.847398mWCRMadhavnagar, Madhya Pradesh
3NWRNiwar (2)X  22:41+1:1122:42+1:231m--1-405.952412mWCRPipraundh, Madhya Pradesh
4SNRRSansarpur (2)X  22:51-22:52-1m--1-398.159436mWCRNational Highway 7, Madhya Pradesh
5SBDSleemanabad Road (2)  22:59+4523:00+451m--1-391.257434mWCRSleemanabad, Madhya Pradesh
6DDCEDundi (2)  23:10+1:2223:11+1:301m--1-381.760415mWCRDundi, Madhya Pradesh
7SHRSihora Road (2)X  23:26+5923:28+1:022m--1-366.861388mWCRJabalpur, Madhya Pradesh
8GSPRGosalpur (2)X  23:39+1:3223:40+1:331m--1-355.757396mWCRJabalpur, Madhya Pradesh
9DOEDeori (2)  23:51+1:3223:52+1:331m--1-345.248392mWCRJabalpur, Madhya Pradesh
10ADTLAdhartal (2)  00:03+1:2900:04+1:391m--2-336.482393mWCRJabalpur, Madhya Pradesh
11JBPJabalpur Junction (4)X  00:20 00:10+2200:30 00:20+3010m12-328.214416mWCRJabalpur, Madhya Pradesh
12MMLMadan Mahal (3)  00:34+2:1700:36+2:172m12-324.956428mWCRJabalpur, Madhya Pradesh
13BRGTBheraghat (2)  00:50+2:1700:51+2:181m--2-311.752389mWCRBheraghat, Madhya Pradesh
14BHTNBhitoni (2)X  01:04 01:06+2:1701:05 01:08+2:261 2m--2-298.669377mWCRJabalpur, Madhya Pradesh
15BMRBikrampur (2)  01:17 01:18+2:2501:18 01:20+2:281 2m--2-287.059353mWCRBikrampur Dist Narsingpur., Madhya Pradesh
16SRIDShridham (3)X  01:29 01:32+2:2801:31 01:34+2:372m32-275.366373mWCRShridham, Madhya Pradesh
17KKBKarak Bel (2)O  01:48+2:4301:49+2:491m--2-259.929375mWCRKarak Bel, Madhya Pradesh
18BELDBelkhera (2)  01:58+2:4701:59+2:531m--2-255.533367mWCRState Highway 22, Madhya Pradesh
19GPCGhatpindrai (2)  02:09+2:5102:10+2:551m--2-250.035366mWCRGhatpindra, Madhya Pradesh
20NUNarsinghpur (2)X  02:20+1:3602:22+1:442m22-244.268365mWCRNarsimhapur, Madhya Pradesh
21KYKareli (2)X  02:36+2:1202:37+2:131m22-228.347361mWCRKareli, Madhya Pradesh
22KFYKarapgaon (2)X  02:48-02:49-1m--2-219.747363mWCRNational Highway 26, Madhya Pradesh
23BNEBohani (2)XO  02:58+3:0802:59+3:091m--2-212.778361mWCRNarsinghpur, Madhya Pradesh
24GARGadarwara (2)XO  03:09+2:3903:10+2:411m22-199.856352mWCRNarsinghpur, Madhya Pradesh
25SCKRSalichauka Road (2)X  03:25+3:1103:26+3:191m--2-185.961355mWCRGadarwara, Madhya Pradesh
26JHTJunehta (2)  03:36-03:37-1m--2-175.851353mWCRState Highway 22, Madhya Pradesh
27BKHBankhedi (2)X  03:44+3:1703:46+3:192m--2-169.969351mWCRBankheri, Madhya Pradesh
28PPIPipariya (3)X  04:03+2:5704:05+3:052m32-150.440338mWCRPiparia, Madhya Pradesh
29SXFSobhapur (2)X  04:18-04:19-1m--2-141.845338mWCRState Highway 22, Madhya Pradesh
30SGPSohagpur (2)X  04:31+3:2304:33+3:232m--2-132.743340mWCRSohagpur, Madhya Pradesh
31GMDGuramkhedi (2)  04:47+3:2004:48+3:211m--2-122.749337mWCRGuramkhedi, Madhya Pradesh
32BGTABagratawa (2)  05:04+3:1505:05+3:241m--2-109.629338mWCRBagra Tawa, Madhya Pradesh
33SQLSontalai (2)X  05:19+3:2005:20+3:411m--2-102.827329mWCRItarsi, Madhya Pradesh
34GROGurra (2)X  05:40+3:0705:41+3:171m--2-93.816327mWCRItarsi, Madhya Pradesh
35ETItarsi Junction (7)  06:20+1:5006:45+1:5025m--2-83.257329mWCRItarsi 461111, Madhya Pradesh
36DRADularia (2)  06:58+3:3806:59+3:491m--2-71.042318mWCRItarsi, Madhya Pradesh
37KTZKhutwansa (2)X  07:07-07:08-1m--2-65.355325mWCRSH 15, Madhya Pradesh
38DKIDharamkundi (2)O  07:17 07:16+3:4507:18+3:451 2m--2-58.031314mWCRSH 15, Madhya Pradesh
39BPFBanapura (2)  07:34+2:4907:35+3:001m--2-49.849314mWCRBanapura, Madhya Pradesh
40BIFBhaironpur (2)O  07:44+2:5807:45+2:591m--2-42.449322mWCRSH 15, Madhya Pradesh
41PGLPagdhal (2)X  07:54+3:4207:55+3:471m--2-35.141317mWCRPagdhal, Madhya Pradesh
42CGOChhidgaon (2)X  08:01-08:02-1m--2-31.026309mWCRHarda, Madhya Pradesh
43TBNTimarni (2)  08:24+3:3108:25+3:321m--2-21.547308mWCRTimarni, Madhya Pradesh
44CRKCharkhera (2)XO  08:34+3:3008:35+3:311m--2-14.423298mWCRBarkalan, Madhya Pradesh
45HDHarda (3)X  08:53+3:3508:55+3:362m--2-7.474289mWCRHarda, Madhya Pradesh
46PALPalasner (2)»  09:02 09:01+3:2209:03+3:221 2m--20.044296mWCRHarda, Madhya Pradesh
47MUOMasangaon (2)XO  09:12 09:11+3:2009:13+3:201 2m--25.912303mWCRSH 15, Madhya Pradesh
48BRIBhiringi (2)  09:39 09:38+3:0109:40+3:061 2m--211.1133294mWCRSH 15, Madhya Pradesh
49KROKurawan (2)X  09:44 09:43-09:45-1 2m--217.829297mWCRSH 15, Madhya Pradesh
50KKNKhirkiya (2)O  09:58+2:4510:00+2:452m1224.141281mWCRSH 15, Madhya Pradesh
51DRHIDagarhkeri (2)XO  10:17 10:16+3:0510:18+3:111 2m--235.121274mWCRState Highway 15, Madhya Pradesh
52BRUDBarud (2)X  10:47 10:46+2:5210:48+3:021 2m--244.676273mWCRKhandwa, Madhya Pradesh
53CAERChhanera (2)XO  10:56+3:0410:58+3:042m--254.823283mWCRChhanera, Madhya Pradesh
54CKKDCharkheda Khurd (2)  11:17 11:16+2:5411:18+2:541 2m--261.624274mWCRKhandwa, Madhya Pradesh
55SGBJSurgaon Banjari (2)  11:47 11:46+2:3811:48+2:381 2m--272.771298mWCRKhandwa, Madhya Pradesh
56TLVTalvadiya (2)  11:58+2:3812:00+2:542m--284.563308mWCRKhandwa, Madhya Pradesh
57MTAMathela (2)XO  12:09 12:08+2:5612:10+2:561 2m--292.96322mWCRKhandwa, Madhya Pradesh
58KNWKhandwa Junction (5)  13:20+1:5913:30+1:5910m--2100.244310mCRKhandwa, Madhya Pradesh
59BRGJBargaon Gujar (2)  13:37+3413:38+341m--2105.460316mCRKhandwa, Madhya Pradesh
60BMABagmar (2)X  13:44+3513:45+361m--2111.466335mCRState Highway 27, Madhya Pradesh
61KDKKohdad (2)X  13:49+3913:50+391m--2115.857344mCRState Highway 15, Madhya Pradesh
62DGNDongargaon (2)  13:58+3913:59+1:001m12123.358373mCRBorgaon, Madhya Pradesh
63SXASagphata (2)  14:07+5914:08+591m--2131.151350mCRKhandwa, Madhya Pradesh
64MWAMandwa (2)X  14:15+1:0014:16+1:001m--2137.044317mCRState Highway 27, Madhya Pradesh
65NPNRNepanagar (2)  14:24+2:3714:26+2:372m--2142.953289mCRState Highway 27, Madhya Pradesh
66CDIChandni (2)X  14:34+1:0214:35+1:031m--2149.977276mCRNepanagar Rd, Madhya Pradesh
67AGQAsirgarh Road (2)  14:43+1:0314:44+1:201m--2160.267259mCRState Highway 27, Madhya Pradesh
68BAUBurhanpur (2)X  14:52+2:0114:55+2:043m12169.162269mCRBurhanpur, Madhya Pradesh
69WGAWaghodaX  15:05+1:4015:06+1:491m--2179.460259mCRChorwad, Maharashtra
70RVRaver (2)X  15:16+1:4815:18+1:482m--2189.368242mCRJalgaon, Maharashtra
71NBNimbhora (2)X  15:27+1:5115:28+1:511m--2199.458229mCRJalgaon, Maharashtra
72SAVSavda (2)  15:37+1:1415:38+1:141m--2208.258220mCRSavda, Maharashtra
73DSKDuskheda (2)X  15:47+1:5115:48+2:021m--2216.96213mCRDuskheda Station, Maharashtra
74BSLBhusaval Junction (8)•  17:00+2:24-62223.6-208mCRBhusaval 425201, Maharashtra
Scroll to Top
Scroll to Bottom